Time;durP1;ratioP1;P1;durP2;ratioP2;P2;SDS_P1;SDS_P2;PMS_P1;PMS_P2;Temp;Humidity;BMP_temperature;BMP_pressure;BME280_temperature;BME280_humidity;BME280_pressure;Samples;Min_cycle;Max_cycle;Signal;HPM_P1;HPM_P2
2022/07/11 00:00:14;;;;;;;3.95;3.50;;;20.80;85.00;;;;;;5105216;28;20020;-60
2022/07/11 00:02:40;;;;;;;4.35;3.95;;;20.80;85.10;;;;;;5100110;28;20031;-60
2022/07/11 00:05:08;;;;;;;4.13;3.70;;;20.80;85.20;;;;;;5102651;28;20107;-60
2022/07/11 00:07:34;;;;;;;3.88;3.50;;;20.80;85.20;;;;;;5099018;28;20073;-60
2022/07/11 00:10:01;;;;;;;4.25;3.80;;;20.80;85.40;;;;;;5103166;28;20434;-60
2022/07/11 00:12:26;;;;;;;3.85;3.45;;;20.80;85.70;;;;;;5111716;28;20038;-59
2022/07/11 00:14:55;;;;;;;3.67;3.35;;;20.80;85.50;;;;;;5111818;28;20027;-59
2022/07/11 00:17:21;;;;;;;4.07;3.67;;;20.80;85.60;;;;;;5112921;28;20156;-60
2022/07/11 00:19:48;;;;;;;3.55;3.25;;;20.70;85.80;;;;;;5112907;28;20105;-60
2022/07/11 00:22:13;;;;;;;4.35;3.92;;;20.70;86.00;;;;;;5107170;28;20026;-60
2022/07/11 00:24:39;;;;;;;3.90;3.50;;;20.70;86.00;;;;;;5110201;28;20368;-59
2022/07/11 00:27:05;;;;;;;3.85;3.50;;;20.70;86.20;;;;;;5106487;28;20028;-60
2022/07/11 00:29:31;;;;;;;3.65;3.25;;;20.70;86.30;;;;;;5105886;28;20472;-60
2022/07/11 00:31:58;;;;;;;4.57;3.47;;;20.70;86.50;;;;;;5099906;28;20440;-59
2022/07/11 00:34:24;;;;;;;4.25;3.85;;;20.70;86.60;;;;;;5100010;28;20067;-59
2022/07/11 00:36:50;;;;;;;3.80;3.40;;;20.70;86.50;;;;;;5103167;28;20388;-60
2022/07/11 00:39:16;;;;;;;4.38;3.97;;;20.70;86.50;;;;;;5106912;28;20030;-60
2022/07/11 00:41:42;;;;;;;4.05;3.65;;;20.70;86.70;;;;;;5103024;28;20082;-59
2022/07/11 00:44:08;;;;;;;4.28;3.88;;;20.70;86.70;;;;;;5109509;28;20498;-60
2022/07/11 00:46:33;;;;;;;4.40;4.00;;;20.70;86.80;;;;;;5108973;28;20032;-60
2022/07/11 00:49:00;;;;;;;4.78;4.28;;;20.70;86.90;;;;;;5102779;28;20143;-59
2022/07/11 00:51:26;;;;;;;4.00;3.60;;;20.60;87.00;;;;;;5098320;28;20031;-60
2022/07/11 00:53:54;;;;;;;4.40;3.97;;;20.60;86.90;;;;;;5102967;28;20066;-59
2022/07/11 00:56:21;;;;;;;4.35;3.95;;;20.60;86.90;;;;;;5111192;28;20442;-59
2022/07/11 00:58:48;;;;;;;4.07;3.67;;;20.60;87.30;;;;;;5111589;28;20578;-59
2022/07/11 01:01:14;;;;;;;4.95;4.30;;;20.60;87.30;;;;;;5096575;28;20020;-60
2022/07/11 01:03:40;;;;;;;4.20;3.80;;;20.60;87.50;;;;;;5110878;28;20480;-60
2022/07/11 01:06:07;;;;;;;4.90;4.40;;;20.60;87.50;;;;;;5111507;28;20035;-59
2022/07/11 01:08:36;;;;;;;4.55;4.15;;;20.60;87.60;;;;;;5112377;28;20028;-59
2022/07/11 01:11:03;;;;;;;4.47;4.07;;;20.60;87.70;;;;;;5112066;28;20475;-60
2022/07/11 01:13:32;;;;;;;5.00;4.22;;;20.60;87.70;;;;;;5108048;28;20110;-59
2022/07/11 01:16:12;;;;;;;4.75;4.32;;;20.50;87.60;;;;;;5111576;28;20089;-60
2022/07/11 01:18:39;;;;;;;4.85;4.35;;;20.50;87.60;;;;;;5111304;28;20098;-60
2022/07/11 01:21:25;;;;;;;5.18;4.30;;;20.50;87.90;;;;;;5115465;28;20441;-60
2022/07/11 01:23:55;;;;;;;4.78;4.10;;;20.50;87.90;;;;;;5108366;28;20024;-59
2022/07/11 01:26:22;;;;;;;5.75;4.88;;;20.50;88.30;;;;;;5116351;28;20059;-60
2022/07/11 01:28:49;;;;;;;4.45;4.05;;;20.40;88.20;;;;;;5116171;28;20020;-60
2022/07/11 01:31:14;;;;;;;5.20;4.70;;;20.40;88.30;;;;;;5113539;27;20024;-59
2022/07/11 01:33:40;;;;;;;5.20;4.70;;;20.40;88.40;;;;;;5108458;28;20042;-59
2022/07/11 01:36:07;;;;;;;4.85;3.97;;;20.40;88.40;;;;;;5115898;27;20016;-60
2022/07/11 01:38:32;;;;;;;4.93;4.35;;;20.40;88.50;;;;;;5116290;28;20030;-60
2022/07/11 01:40:58;;;;;;;5.50;4.70;;;20.30;88.70;;;;;;5114945;28;20024;-60
2022/07/11 01:43:24;;;;;;;5.93;5.15;;;20.30;88.80;;;;;;5116023;28;20047;-60
2022/07/11 01:45:52;;;;;;;5.50;4.95;;;20.30;89.00;;;;;;5115638;28;20039;-60
2022/07/11 01:48:18;;;;;;;5.60;5.00;;;20.30;89.10;;;;;;5114729;28;20128;-60
2022/07/11 01:50:44;;;;;;;5.97;5.25;;;20.30;89.30;;;;;;5116049;28;20031;-60
2022/07/11 01:53:10;;;;;;;6.45;5.50;;;20.20;89.50;;;;;;5115864;28;20102;-60
2022/07/11 01:55:35;;;;;;;5.90;5.00;;;20.20;89.60;;;;;;5115363;28;20039;-60
2022/07/11 01:58:01;;;;;;;5.97;5.38;;;20.20;89.80;;;;;;5114630;28;20093;-60
2022/07/11 02:00:27;;;;;;;4.90;4.40;;;20.10;90.00;;;;;;5115446;28;20420;-59
2022/07/11 02:02:53;;;;;;;5.25;4.75;;;20.10;90.10;;;;;;5108334;28;20023;-59
2022/07/11 02:05:18;;;;;;;7.05;5.25;;;20.10;90.20;;;;;;5115456;28;20118;-58
2022/07/11 02:10:29;;;;;;;7.15;6.10;;;20.10;90.30;;;;;;5102685;27;20030;-60
2022/07/11 02:12:58;;;;;;;6.28;5.15;;;20.10;90.10;;;;;;5107743;28;20103;-58
2022/07/11 02:15:25;;;;;;;5.57;4.95;;;20.10;90.00;;;;;;5113866;28;20028;-59
2022/07/11 02:17:51;;;;;;;6.32;5.45;;;20.00;90.10;;;;;;5115698;28;20059;-60
2022/07/11 02:20:18;;;;;;;6.63;5.40;;;20.00;90.20;;;;;;5115174;28;20039;-59
2022/07/11 02:22:44;;;;;;;5.90;5.30;;;20.00;90.30;;;;;;5115635;28;20467;-59
2022/07/11 02:25:10;;;;;;;6.38;5.70;;;20.00;90.20;;;;;;5114508;28;20051;-60
2022/07/11 02:27:36;;;;;;;6.10;5.50;;;20.00;90.40;;;;;;5115166;28;20438;-60
2022/07/11 02:30:02;;;;;;;5.78;4.70;;;20.00;90.40;;;;;;5114107;28;20024;-60
2022/07/11 02:32:27;;;;;;;5.22;4.68;;;20.00;90.30;;;;;;5110269;28;20039;-60
2022/07/11 02:34:53;;;;;;;5.07;4.47;;;20.00;90.30;;;;;;5112459;28;20032;-59
2022/07/11 02:37:19;;;;;;;5.15;4.43;;;20.10;90.20;;;;;;5114675;27;20051;-59
2022/07/11 02:39:46;;;;;;;5.32;4.40;;;20.10;90.10;;;;;;5114034;28;20051;-59
2022/07/11 02:42:11;;;;;;;6.05;5.45;;;20.10;89.90;;;;;;5114704;28;20110;-59
2022/07/11 02:44:37;;;;;;;6.10;5.50;;;20.10;89.90;;;;;;5114897;28;20106;-60
2022/07/11 02:47:03;;;;;;;6.88;6.18;;;20.10;89.80;;;;;;5113597;28;20028;-60
2022/07/11 02:49:30;;;;;;;5.38;4.75;;;20.10;89.80;;;;;;5114547;28;20031;-60
2022/07/11 02:51:56;;;;;;;5.65;5.05;;;20.10;89.90;;;;;;5114609;28;20069;-59
2022/07/11 02:54:22;;;;;;;4.80;4.25;;;20.10;90.00;;;;;;5114494;28;20016;-59
2022/07/11 02:56:48;;;;;;;6.95;5.15;;;20.10;90.10;;;;;;5108128;28;20119;-59
2022/07/11 02:59:14;;;;;;;5.85;5.25;;;20.10;90.10;;;;;;5098340;28;20460;-59
2022/07/11 03:01:41;;;;;;;5.93;5.15;;;20.10;90.00;;;;;;5107026;28;20047;-60
2022/07/11 03:04:10;;;;;;;5.32;4.50;;;20.10;89.90;;;;;;5113034;28;20036;-59
2022/07/11 03:06:38;;;;;;;6.72;4.75;;;20.10;89.90;;;;;;5114274;28;20062;-60
2022/07/11 03:09:05;;;;;;;5.15;4.65;;;20.10;89.80;;;;;;5114661;28;20143;-59
2022/07/11 03:11:31;;;;;;;6.60;5.45;;;20.10;89.90;;;;;;5108966;28;20085;-59
2022/07/11 03:13:57;;;;;;;6.25;5.65;;;20.10;90.00;;;;;;5113371;28;20027;-59
2022/07/11 03:16:23;;;;;;;6.40;5.53;;;20.10;89.80;;;;;;5114017;28;20020;-59
2022/07/11 03:18:48;;;;;;;5.50;4.75;;;20.00;89.80;;;;;;5114210;28;20080;-60
2022/07/11 03:21:14;;;;;;;6.45;5.40;;;20.00;89.80;;;;;;5112881;28;20035;-59
2022/07/11 03:23:40;;;;;;;6.95;6.15;;;20.00;90.00;;;;;;5114112;28;20015;-60
2022/07/11 03:26:06;;;;;;;6.25;5.40;;;20.00;90.00;;;;;;5114103;28;20449;-60
2022/07/11 03:28:31;;;;;;;6.35;5.60;;;20.00;90.30;;;;;;5114081;28;20058;-58
2022/07/11 03:30:57;;;;;;;7.47;6.72;;;20.00;90.20;;;;;;5103692;28;20020;-59
2022/07/11 03:33:23;;;;;;;6.07;5.40;;;20.00;90.20;;;;;;5111672;28;20031;-60
2022/07/11 03:35:48;;;;;;;5.45;4.47;;;20.00;90.20;;;;;;5113677;28;20046;-59
2022/07/11 03:38:18;;;;;;;6.43;5.68;;;20.00;90.30;;;;;;5112639;28;20023;-60
2022/07/11 03:40:44;;;;;;;5.13;4.30;;;20.00;90.20;;;;;;5111981;28;20058;-60
2022/07/11 03:43:10;;;;;;;5.03;4.53;;;20.00;90.30;;;;;;5113828;28;20464;-60
2022/07/11 03:45:36;;;;;;;5.47;4.30;;;20.00;90.20;;;;;;5104139;28;20499;-60
2022/07/11 03:48:02;;;;;;;7.55;5.45;;;20.00;90.20;;;;;;5113392;28;20036;-59
2022/07/11 03:50:29;;;;;;;6.00;5.40;;;20.00;90.10;;;;;;5112187;28;20019;-59
2022/07/11 03:52:55;;;;;;;6.68;5.47;;;20.00;90.20;;;;;;5113518;28;20464;-60
2022/07/11 03:55:21;;;;;;;7.00;5.85;;;20.00;90.20;;;;;;5112518;28;20036;-59
2022/07/11 03:57:47;;;;;;;6.40;5.65;;;20.00;90.20;;;;;;5113230;28;20030;-59
2022/07/11 04:00:13;;;;;;;6.47;5.38;;;19.90;90.20;;;;;;5113388;28;20051;-59
2022/07/11 04:02:39;;;;;;;6.53;5.38;;;20.00;90.10;;;;;;5111360;28;20024;-60
2022/07/11 04:05:05;;;;;;;6.45;5.65;;;20.00;90.10;;;;;;5111911;28;20024;-60
2022/07/11 04:07:31;;;;;;;6.07;5.20;;;20.00;90.10;;;;;;5113041;28;20046;-59
2022/07/11 04:09:57;;;;;;;5.63;5.00;;;20.00;90.10;;;;;;5113161;28;20471;-60
2022/07/11 04:12:23;;;;;;;6.45;5.53;;;20.00;90.20;;;;;;5100149;28;20500;-59
2022/07/11 04:14:48;;;;;;;6.35;5.43;;;20.00;90.00;;;;;;5113070;28;20035;-59
2022/07/11 04:17:14;;;;;;;6.57;5.15;;;20.00;90.00;;;;;;5112786;28;20041;-60
2022/07/11 04:19:40;;;;;;;7.80;6.47;;;20.00;90.00;;;;;;5111243;28;20478;-60
2022/07/11 04:22:06;;;;;;;7.57;5.88;;;20.00;90.00;;;;;;5112899;28;20028;-59
2022/07/11 04:24:32;;;;;;;6.20;5.35;;;20.00;89.90;;;;;;5113527;28;20428;-59
2022/07/11 04:26:59;;;;;;;7.18;5.82;;;20.10;90.20;;;;;;5112900;28;20106;-59
2022/07/11 04:29:25;;;;;;;6.35;5.57;;;20.00;89.90;;;;;;5111848;28;20475;-59
2022/07/11 04:31:51;;;;;;;6.40;5.57;;;20.00;89.90;;;;;;5108311;28;20027;-60
2022/07/11 04:34:17;;;;;;;7.95;5.75;;;20.10;90.00;;;;;;5104749;28;20153;-59
2022/07/11 04:36:43;;;;;;;6.65;5.45;;;20.10;90.00;;;;;;5112814;28;20035;-59
2022/07/11 04:39:09;;;;;;;5.93;5.32;;;20.10;90.00;;;;;;5110890;28;20088;-60
2022/07/11 04:41:35;;;;;;;6.40;5.63;;;20.10;90.00;;;;;;5112567;28;20027;-59
2022/07/11 04:44:00;;;;;;;6.22;5.18;;;20.20;90.20;;;;;;5112803;28;20436;-60
2022/07/11 04:46:29;;;;;;;6.15;5.43;;;20.20;90.10;;;;;;5111476;28;20028;-59
2022/07/11 04:48:55;;;;;;;6.22;5.45;;;20.20;89.90;;;;;;5111920;28;20071;-59
2022/07/11 04:51:21;;;;;;;6.82;5.95;;;20.20;89.80;;;;;;5104599;28;20058;-59
2022/07/11 04:53:47;;;;;;;6.15;5.55;;;20.20;89.70;;;;;;5093920;28;20063;-59
2022/07/11 04:56:13;;;;;;;5.55;5.05;;;20.20;89.70;;;;;;5108323;28;20076;-60
2022/07/11 04:58:39;;;;;;;7.00;6.03;;;20.20;89.80;;;;;;5112694;28;20055;-60
2022/07/11 05:01:05;;;;;;;5.57;4.63;;;20.20;89.80;;;;;;5110793;28;20059;-60
2022/07/11 05:03:32;;;;;;;6.00;4.85;;;20.20;89.80;;;;;;5106077;28;20035;-59
2022/07/11 05:05:57;;;;;;;5.55;4.90;;;20.20;89.80;;;;;;5106045;28;20039;-60
2022/07/11 05:08:23;;;;;;;6.63;5.32;;;20.20;89.90;;;;;;5108614;28;20051;-60
2022/07/11 05:10:49;;;;;;;6.32;5.38;;;20.20;89.60;;;;;;5103521;28;20081;-59
2022/07/11 05:13:15;;;;;;;7.40;5.97;;;20.30;89.70;;;;;;5083588;28;20034;-60
2022/07/11 05:15:41;;;;;;;8.55;6.30;;;20.30;89.70;;;;;;5102324;28;20552;-59
2022/07/11 05:18:06;;;;;;;6.32;5.32;;;20.30;89.40;;;;;;5106227;28;20020;-60
2022/07/11 05:20:32;;;;;;;5.88;5.28;;;20.30;89.30;;;;;;5100756;28;20020;-59
2022/07/11 05:22:58;;;;;;;6.03;5.43;;;20.30;89.30;;;;;;5106938;28;20027;-59
2022/07/11 05:25:25;;;;;;;6.72;6.03;;;20.40;89.50;;;;;;5106295;28;20027;-59
2022/07/11 05:27:51;;;;;;;6.30;5.70;;;20.40;89.20;;;;;;5111181;28;20377;-60
2022/07/11 05:30:17;;;;;;;6.75;5.90;;;20.40;89.20;;;;;;5104083;28;20024;-58
2022/07/11 05:32:43;;;;;;;5.95;5.35;;;20.50;89.10;;;;;;5107042;28;20030;-59
2022/07/11 05:35:08;;;;;;;5.85;5.25;;;20.50;89.20;;;;;;5111719;28;20020;-59
2022/07/11 05:37:34;;;;;;;5.97;5.20;;;20.50;88.80;;;;;;5106633;28;20082;-59
2022/07/11 05:40:00;;;;;;;7.05;5.63;;;20.60;88.40;;;;;;5106495;28;20442;-58
2022/07/11 05:42:25;;;;;;;5.85;5.20;;;20.60;88.10;;;;;;5096571;28;20046;-62
2022/07/11 05:44:51;;;;;;;5.85;5.25;;;20.60;88.00;;;;;;5098457;28;20425;-62
2022/07/11 05:47:17;;;;;;;5.20;4.70;;;20.60;88.00;;;;;;5096656;28;20028;-62
2022/07/11 05:49:43;;;;;;;5.50;4.85;;;20.70;87.70;;;;;;5100480;28;20128;-62
2022/07/11 05:52:09;;;;;;;5.22;4.60;;;20.80;87.50;;;;;;5104173;28;20069;-62
2022/07/11 05:54:35;;;;;;;5.65;4.97;;;20.90;87.10;;;;;;5103190;28;20027;-62
2022/07/11 05:57:02;;;;;;;4.82;4.35;;;21.00;87.10;;;;;;5093038;28;20036;-62
2022/07/11 05:59:28;;;;;;;5.22;4.60;;;21.10;86.90;;;;;;5099399;28;20402;-62
2022/07/11 06:01:54;;;;;;;5.03;4.30;;;21.20;86.40;;;;;;5099420;28;20020;-62
2022/07/11 06:04:20;;;;;;;5.30;4.60;;;21.30;86.00;;;;;;5100681;28;20022;-62
2022/07/11 06:06:45;;;;;;;5.18;4.53;;;21.40;85.40;;;;;;5099032;28;20093;-61
2022/07/11 06:09:11;;;;;;;4.63;4.13;;;21.50;85.00;;;;;;5108264;27;20046;-62
2022/07/11 06:11:37;;;;;;;5.32;4.70;;;21.60;84.60;;;;;;5096234;28;20035;-62
2022/07/11 06:14:03;;;;;;;4.75;4.25;;;21.70;84.20;;;;;;5104572;28;20032;-62
2022/07/11 06:16:28;;;;;;;5.85;4.60;;;21.80;83.80;;;;;;5106049;27;20410;-62
2022/07/11 06:18:55;;;;;;;4.45;4.05;;;21.90;83.50;;;;;;5104426;27;20027;-62
2022/07/11 06:21:21;;;;;;;4.40;4.00;;;21.90;83.10;;;;;;5097780;28;20028;-62
2022/07/11 06:23:47;;;;;;;4.50;4.10;;;22.00;82.90;;;;;;5097884;27;20055;-62
2022/07/11 06:26:15;;;;;;;4.70;4.20;;;22.00;82.60;;;;;;5099168;27;20589;-62
2022/07/11 06:28:40;;;;;;;4.78;3.97;;;22.10;82.40;;;;;;5100545;27;21262;-62
2022/07/11 06:31:06;;;;;;;4.10;3.70;;;22.10;82.20;;;;;;5094953;27;20142;-62
2022/07/11 06:33:32;;;;;;;4.13;3.72;;;22.20;82.00;;;;;;5099491;27;20035;-62
2022/07/11 06:35:58;;;;;;;4.40;3.80;;;22.30;81.80;;;;;;5102110;27;20032;-62
2022/07/11 06:38:23;;;;;;;4.05;3.63;;;22.30;81.70;;;;;;5095743;27;20796;-62
2022/07/11 06:40:49;;;;;;;3.78;3.47;;;22.40;81.50;;;;;;5091057;27;20593;-62
2022/07/11 06:43:15;;;;;;;4.13;3.70;;;22.50;81.30;;;;;;5095722;27;20066;-62
2022/07/11 06:45:41;;;;;;;4.82;3.90;;;22.60;81.00;;;;;;5103229;27;20111;-62
2022/07/11 06:48:07;;;;;;;4.18;3.78;;;22.70;80.80;;;;;;5101897;27;20028;-61
2022/07/11 06:50:33;;;;;;;4.35;3.95;;;22.80;80.30;;;;;;5095555;27;20020;-62
2022/07/11 06:52:59;;;;;;;3.83;3.53;;;22.80;79.90;;;;;;5087252;27;20104;-62
2022/07/11 06:55:25;;;;;;;4.03;3.63;;;22.90;79.70;;;;;;5093290;27;20020;-62
2022/07/11 06:57:50;;;;;;;3.95;3.55;;;23.00;79.60;;;;;;5094900;27;20547;-62
2022/07/11 07:00:17;;;;;;;3.80;3.50;;;23.00;79.30;;;;;;5099583;27;20024;-64
2022/07/11 07:02:43;;;;;;;3.67;3.30;;;23.10;79.10;;;;;;5090780;27;20105;-63
2022/07/11 07:05:09;;;;;;;3.70;3.40;;;23.20;78.90;;;;;;5090421;27;20039;-64
2022/07/11 07:07:35;;;;;;;3.47;3.17;;;23.20;78.60;;;;;;5096338;27;20035;-64
2022/07/11 07:10:02;;;;;;;4.93;3.60;;;23.30;78.30;;;;;;5089505;27;20032;-62
2022/07/11 07:12:27;;;;;;;3.70;3.40;;;23.40;78.00;;;;;;5095333;27;20118;-62
2022/07/11 07:14:53;;;;;;;4.45;4.03;;;23.40;77.60;;;;;;5095107;27;20152;-62
2022/07/11 07:17:19;;;;;;;3.75;3.45;;;23.40;77.60;;;;;;5095088;27;20035;-62
2022/07/11 07:19:46;;;;;;;4.10;3.70;;;23.40;77.70;;;;;;5092323;27;20183;-61
2022/07/11 07:22:14;;;;;;;3.67;3.38;;;23.30;77.50;;;;;;5092065;27;20035;-61
2022/07/11 07:24:40;;;;;;;4.40;4.00;;;23.30;77.60;;;;;;5092458;27;20038;-62
2022/07/11 07:27:06;;;;;;;4.55;4.10;;;23.30;77.30;;;;;;5097370;27;20491;-62
2022/07/11 07:29:32;;;;;;;3.67;3.38;;;23.20;77.40;;;;;;5094067;27;20106;-62
2022/07/11 07:31:59;;;;;;;3.92;3.58;;;23.20;77.40;;;;;;5092696;27;20064;-62
2022/07/11 07:34:25;;;;;;;3.85;3.50;;;23.10;77.60;;;;;;5092367;27;20039;-59
2022/07/11 07:36:50;;;;;;;4.50;4.10;;;23.10;77.70;;;;;;5088504;27;20580;-62
2022/07/11 07:39:16;;;;;;;3.97;3.58;;;23.10;77.80;;;;;;5094481;27;20422;-62
2022/07/11 07:41:42;;;;;;;4.63;3.58;;;23.10;77.70;;;;;;5088915;27;20479;-62
2022/07/11 07:44:08;;;;;;;3.67;3.38;;;23.10;77.60;;;;;;5086272;28;20016;-62
2022/07/11 07:46:34;;;;;;;4.28;3.88;;;23.10;77.60;;;;;;5085517;27;20024;-63
2022/07/11 07:49:00;;;;;;;4.40;4.00;;;23.20;77.50;;;;;;5089279;27;20407;-62
2022/07/11 07:51:26;;;;;;;4.13;3.72;;;23.20;77.10;;;;;;5094450;27;20031;-63
2022/07/11 07:53:51;;;;;;;3.78;3.42;;;23.30;77.10;;;;;;5091075;27;20506;-63
2022/07/11 07:56:17;;;;;;;3.85;3.55;;;23.40;76.90;;;;;;5090588;27;20032;-63
2022/07/11 07:58:43;;;;;;;3.88;3.47;;;23.40;76.60;;;;;;5086991;28;20031;-63
2022/07/11 08:03:54;;;;;;;4.10;3.70;;;23.50;76.50;;;;;;5088089;27;20395;-63
2022/07/11 08:06:20;;;;;;;4.72;3.35;;;23.50;76.50;;;;;;5087726;27;20063;-64
2022/07/11 08:08:46;;;;;;;4.85;4.28;;;23.60;76.30;;;;;;5086236;28;20043;-64
2022/07/11 08:11:13;;;;;;;4.40;4.00;;;23.60;75.90;;;;;;5087679;27;20035;-64
2022/07/11 08:13:38;;;;;;;5.32;3.95;;;23.60;75.90;;;;;;5080524;27;20028;-63
2022/07/11 08:16:06;;;;;;;4.05;3.65;;;23.60;75.70;;;;;;5088322;27;20038;-62
2022/07/11 08:18:33;;;;;;;4.70;4.00;;;23.70;75.80;;;;;;5087403;27;20575;-63
2022/07/11 08:20:59;;;;;;;3.50;3.20;;;23.80;75.70;;;;;;5090560;28;20023;-63
2022/07/11 08:23:25;;;;;;;3.97;3.55;;;23.80;75.60;;;;;;5091182;27;20019;-62
2022/07/11 08:25:51;;;;;;;4.50;4.10;;;23.90;75.40;;;;;;5083871;27;20060;-62
2022/07/11 08:28:16;;;;;;;4.05;3.65;;;23.90;74.90;;;;;;5087314;27;20190;-62
2022/07/11 08:30:42;;;;;;;4.13;3.72;;;24.00;74.80;;;;;;5078305;28;20900;-62
2022/07/11 08:33:08;;;;;;;4.30;3.90;;;24.10;74.70;;;;;;5079841;27;20392;-63
2022/07/11 08:35:34;;;;;;;4.22;3.83;;;24.20;74.50;;;;;;5085879;27;20032;-63
2022/07/11 08:37:59;;;;;;;4.22;3.78;;;24.20;74.00;;;;;;5092555;27;20023;-63
2022/07/11 08:40:25;;;;;;;4.30;3.47;;;24.30;74.10;;;;;;5090654;27;20034;-63
2022/07/11 08:42:51;;;;;;;3.45;3.13;;;24.40;74.10;;;;;;5067856;28;20031;-63
2022/07/11 08:45:17;;;;;;;3.63;3.33;;;24.50;73.60;;;;;;5089066;27;20055;-65
2022/07/11 08:47:44;;;;;;;3.60;3.30;;;24.60;73.30;;;;;;5090149;28;20135;-65
2022/07/11 08:50:12;;;;;;;4.57;3.67;;;24.60;72.80;;;;;;5090873;28;20055;-63
2022/07/11 08:52:38;;;;;;;3.47;3.17;;;24.60;72.50;;;;;;5066993;28;20055;-65
2022/07/11 08:55:08;;;;;;;3.72;3.30;;;24.60;72.20;;;;;;5082256;28;20046;-64
2022/07/11 08:57:38;;;;;;;3.50;3.20;;;24.70;72.10;;;;;;5080539;28;20139;-63
2022/07/11 09:00:09;;;;;;;3.40;3.10;;;24.70;71.90;;;;;;5081393;28;20040;-62
2022/07/11 09:02:35;;;;;;;3.92;3.20;;;24.80;71.90;;;;;;5085921;28;20032;-61
2022/07/11 09:05:05;;;;;;;3.40;3.10;;;24.90;71.80;;;;;;5095810;28;20110;-61
2022/07/11 09:07:32;;;;;;;3.20;2.90;;;25.00;71.50;;;;;;5087034;28;20031;-62
2022/07/11 09:09:58;;;;;;;3.78;2.88;;;25.00;71.00;;;;;;5100145;28;20039;-61
2022/07/11 09:12:23;;;;;;;3.30;3.00;;;25.10;70.80;;;;;;5090212;28;20032;-64
2022/07/11 09:14:53;;;;;;;3.67;3.38;;;25.10;70.70;;;;;;5093698;28;20625;-63
2022/07/11 09:17:28;;;;;;;3.15;2.78;;;25.10;70.40;;;;;;5098869;28;20795;-63
2022/07/11 09:19:54;;;;;;;2.65;2.45;;;25.10;70.40;;;;;;5092552;28;20034;-63
2022/07/11 09:28:04;;;;;;;3.50;3.20;;;25.30;70.30;;;;;;5096622;28;20089;-62
2022/07/11 09:30:35;;;;;;;4.03;3.35;;;25.30;70.10;;;;;;5096466;28;20067;-61
2022/07/11 09:33:03;;;;;;;3.03;2.78;;;25.40;70.00;;;;;;5090002;28;20474;-59
2022/07/11 09:35:37;;;;;;;2.92;2.72;;;25.40;69.60;;;;;;5087746;28;20100;-61
2022/07/11 09:38:08;;;;;;;2.88;2.67;;;25.40;69.70;;;;;;5085815;28;20056;-61
2022/07/11 09:40:35;;;;;;;3.17;2.88;;;25.40;69.60;;;;;;5078761;28;20031;-61
2022/07/11 09:43:01;;;;;;;2.90;2.70;;;25.40;69.50;;;;;;5079557;27;20208;-61
2022/07/11 09:45:29;;;;;;;2.70;2.50;;;25.50;69.40;;;;;;5090055;27;20019;-61
2022/07/11 09:48:00;;;;;;;3.00;2.75;;;25.50;69.40;;;;;;5078666;27;20051;-60
2022/07/11 09:50:31;;;;;;;3.05;2.75;;;25.60;69.20;;;;;;5086147;27;20157;-61
2022/07/11 09:53:03;;;;;;;3.03;2.75;;;25.60;68.90;;;;;;5079542;27;20443;-62
2022/07/11 09:55:34;;;;;;;2.70;2.50;;;25.70;68.70;;;;;;5074098;27;20036;-62
2022/07/11 09:58:07;;;;;;;3.13;2.80;;;25.70;68.50;;;;;;5075084;27;20046;-62
2022/07/11 10:00:35;;;;;;;2.47;2.30;;;25.80;68.30;;;;;;5072457;27;20050;-63
2022/07/11 10:03:02;;;;;;;3.08;2.75;;;25.80;68.30;;;;;;5074725;27;20028;-63
2022/07/11 10:05:29;;;;;;;3.25;2.65;;;25.80;68.00;;;;;;5087553;27;20121;-63
2022/07/11 10:07:55;;;;;;;2.85;2.55;;;25.80;68.00;;;;;;5091923;27;20032;-63
2022/07/11 10:10:21;;;;;;;2.75;2.50;;;25.80;67.80;;;;;;5097854;27;20169;-63
2022/07/11 10:12:47;;;;;;;3.03;2.58;;;25.80;67.90;;;;;;5096003;27;20078;-63
2022/07/11 10:15:22;;;;;;;2.72;2.53;;;25.80;67.80;;;;;;5088722;27;20024;-63
2022/07/11 10:18:06;;;;;;;2.42;2.22;;;25.80;67.50;;;;;;5085794;27;21630;-63
2022/07/11 10:20:52;;;;;;;2.40;2.20;;;25.80;67.50;;;;;;5080273;27;20105;-63
2022/07/11 10:23:24;;;;;;;2.78;2.58;;;25.70;67.20;;;;;;5084469;27;20027;-63
2022/07/11 10:26:30;;;;;;;2.58;2.42;;;25.70;67.20;;;;;;5093119;27;20059;-63
2022/07/11 10:29:01;;;;;;;2.42;2.33;;;25.70;67.20;;;;;;5091247;27;20028;-63
2022/07/11 10:31:30;;;;;;;2.42;2.22;;;25.60;67.30;;;;;;5094969;27;20024;-63
2022/07/11 10:34:04;;;;;;;2.63;2.42;;;25.60;67.30;;;;;;5101291;27;20394;-63
2022/07/11 10:36:31;;;;;;;2.25;2.10;;;25.60;67.10;;;;;;5092809;27;20028;-63
2022/07/11 10:39:16;;;;;;;2.50;2.28;;;25.60;67.10;;;;;;5094146;27;20036;-63
2022/07/11 10:41:42;;;;;;;2.25;2.15;;;25.60;66.70;;;;;;5092206;27;20107;-63
2022/07/11 10:44:08;;;;;;;2.42;2.25;;;25.50;67.00;;;;;;5089832;27;20034;-64
2022/07/11 10:46:35;;;;;;;2.50;2.30;;;25.60;67.10;;;;;;5095997;27;20036;-63
2022/07/11 10:49:06;;;;;;;2.60;2.40;;;25.50;66.90;;;;;;5091414;27;20052;-64
2022/07/11 10:51:52;;;;;;;2.00;1.90;;;25.50;66.70;;;;;;5088947;27;20027;-64
2022/07/11 10:54:35;;;;;;;2.28;2.15;;;25.50;66.70;;;;;;5089923;27;20035;-64
2022/07/11 10:57:30;;;;;;;2.58;2.38;;;25.60;67.00;;;;;;5095280;27;20154;-64
2022/07/11 10:59:56;;;;;;;2.65;2.45;;;25.60;66.60;;;;;;5084056;27;20070;-63
2022/07/11 11:02:22;;;;;;;2.20;2.10;;;25.60;66.60;;;;;;5083054;27;20024;-63
2022/07/11 11:04:48;;;;;;;2.10;2.00;;;25.70;66.70;;;;;;5089260;27;20724;-63
2022/07/11 11:07:37;;;;;;;2.00;1.90;;;25.70;66.40;;;;;;5088493;27;20063;-62
2022/07/11 11:10:18;;;;;;;2.47;2.28;;;25.80;66.20;;;;;;5085652;27;20046;-63
2022/07/11 11:13:11;;;;;;;2.58;2.38;;;25.80;66.10;;;;;;5088560;27;20059;-63
2022/07/11 11:15:45;;;;;;;2.10;2.00;;;25.70;65.90;;;;;;5093295;27;20043;-62
2022/07/11 11:18:25;;;;;;;2.28;2.08;;;25.70;66.00;;;;;;5093745;27;20503;-63
2022/07/11 11:21:02;;;;;;;2.30;2.10;;;25.70;66.00;;;;;;5089500;27;20479;-63
2022/07/11 11:23:33;;;;;;;2.33;2.13;;;25.70;65.90;;;;;;5095932;27;20143;-63
2022/07/11 11:26:13;;;;;;;2.25;2.15;;;25.60;65.90;;;;;;5084804;27;20036;-63
2022/07/11 11:28:54;;;;;;;2.30;2.10;;;25.60;65.90;;;;;;5087820;27;20039;-64
2022/07/11 11:31:20;;;;;;;2.20;2.10;;;25.50;65.80;;;;;;5092698;27;20071;-63
2022/07/11 11:33:47;;;;;;;2.10;2.00;;;25.50;66.10;;;;;;5090537;27;20221;-63
2022/07/11 11:36:16;;;;;;;2.55;2.35;;;25.40;66.20;;;;;;5085554;27;20059;-63
2022/07/11 11:38:44;;;;;;;2.38;2.00;;;25.40;66.10;;;;;;5084950;27;20094;-63
2022/07/11 11:41:12;;;;;;;2.38;2.17;;;25.30;66.10;;;;;;5089786;27;20084;-63
2022/07/11 11:43:45;;;;;;;2.10;2.00;;;25.30;66.00;;;;;;5085446;27;20748;-63
2022/07/11 11:46:13;;;;;;;2.00;1.90;;;25.20;66.30;;;;;;5085986;27;20095;-62
2022/07/11 11:48:45;;;;;;;2.03;1.92;;;25.10;66.70;;;;;;5083624;27;20050;-62
2022/07/11 11:51:15;;;;;;;2.50;2.30;;;25.00;67.10;;;;;;5086521;27;20046;-61
2022/07/11 11:53:45;;;;;;;2.20;2.00;;;24.90;67.50;;;;;;5081102;28;20066;-62
2022/07/11 11:56:28;;;;;;;2.28;2.08;;;24.80;68.00;;;;;;5083309;27;20053;-62
2022/07/11 11:59:15;;;;;;;2.30;2.10;;;24.70;68.70;;;;;;5083328;27;20575;-63
2022/07/11 12:01:48;;;;;;;2.15;1.95;;;24.60;69.00;;;;;;5079291;27;20127;-62
2022/07/11 12:04:15;;;;;;;2.17;1.98;;;24.50;69.40;;;;;;5078676;27;20030;-61
2022/07/11 12:06:43;;;;;;;1.95;1.85;;;24.40;69.60;;;;;;5086088;27;20047;-62
2022/07/11 12:09:16;;;;;;;2.53;2.20;;;24.30;70.60;;;;;;5070825;27;20036;-63
2022/07/11 12:11:44;;;;;;;2.05;1.90;;;24.30;70.30;;;;;;5081065;27;20027;-62
2022/07/11 12:14:12;;;;;;;2.15;2.03;;;24.30;70.80;;;;;;5091609;27;20394;-62
2022/07/11 12:16:46;;;;;;;2.20;2.00;;;24.30;71.00;;;;;;5080777;27;20031;-62
2022/07/11 12:19:14;;;;;;;2.03;1.92;;;24.30;71.30;;;;;;5091243;27;20038;-62
2022/07/11 12:21:43;;;;;;;2.00;1.90;;;24.40;71.30;;;;;;5080336;27;20147;-63
2022/07/11 12:24:11;;;;;;;3.20;2.00;;;24.40;71.00;;;;;;5074813;27;20081;-63
2022/07/11 12:26:38;;;;;;;2.05;1.95;;;24.40;70.60;;;;;;5078654;27;20460;-64
2022/07/11 12:29:24;;;;;;;1.60;1.48;;;24.50;70.40;;;;;;5083346;27;20035;-65
2022/07/11 12:31:51;;;;;;;2.58;2.00;;;24.50;70.30;;;;;;5080008;28;20392;-65
2022/07/11 12:34:19;;;;;;;1.92;1.83;;;24.50;70.50;;;;;;5082081;27;20613;-65
2022/07/11 12:36:45;;;;;;;1.80;1.70;;;24.50;70.30;;;;;;5080900;28;20035;-65
2022/07/11 12:39:32;;;;;;;1.98;1.88;;;24.50;70.40;;;;;;5079464;27;20768;-65
2022/07/11 12:41:59;;;;;;;2.20;2.00;;;24.50;70.30;;;;;;5090777;27;20075;-64
2022/07/11 12:47:17;;;;;;;1.80;1.70;;;24.50;70.00;;;;;;5085390;27;20066;-63
2022/07/11 12:49:46;;;;;;;1.70;1.60;;;24.50;69.80;;;;;;5084209;28;20092;-62
2022/07/11 12:52:13;;;;;;;2.42;1.70;;;24.40;69.90;;;;;;5079283;27;20084;-63
2022/07/11 12:54:39;;;;;;;2.15;2.05;;;24.40;69.90;;;;;;5078329;28;20043;-62
2022/07/11 12:57:07;;;;;;;1.80;1.70;;;24.30;70.10;;;;;;5083827;28;20040;-63
2022/07/11 12:59:33;;;;;;;1.95;1.85;;;24.30;70.40;;;;;;5074660;28;20036;-60
2022/07/11 13:02:06;;;;;;;2.90;2.25;;;24.30;70.60;;;;;;5082108;27;20085;-61
2022/07/11 13:04:32;;;;;;;2.55;2.08;;;24.20;70.30;;;;;;5063428;28;20024;-62